Time;durP1;ratioP1;P1;durP2;ratioP2;P2;SDS_P1;SDS_P2;PMS_P1;PMS_P2;Temp;Humidity;BMP_temperature;BMP_pressure;BME280_temperature;BME280_humidity;BME280_pressure;Samples;Min_cycle;Max_cycle;Signal;HPM_P1;HPM_P2
2023/03/20 00:02:10;;;;;;;1335.88;355.52;;;26.90;99.90;;;;;;5035929;28;20289;-68
2023/03/20 00:04:37;;;;;;;48.50;23.70;;;27.00;99.90;;;;;;5035776;28;20471;-68
2023/03/20 00:07:04;;;;;;;32.53;17.15;;;27.00;99.90;;;;;;5035442;28;20096;-68
2023/03/20 00:09:31;;;;;;;34.45;18.33;;;27.00;99.90;;;;;;5035678;28;20025;-68
2023/03/20 00:11:59;;;;;;;29.55;19.77;;;27.00;99.90;;;;;;5035614;28;20532;-69
2023/03/20 00:14:26;;;;;;;29.35;16.70;;;27.00;99.90;;;;;;5034732;28;20022;-68
2023/03/20 00:16:52;;;;;;;32.95;17.02;;;27.00;99.90;;;;;;5035511;28;20533;-69
2023/03/20 00:19:22;;;;;;;32.25;17.05;;;27.10;99.90;;;;;;5035638;28;20036;-68
2023/03/20 00:21:50;;;;;;;31.00;16.90;;;27.20;99.90;;;;;;5035275;28;20029;-69
2023/03/20 00:24:16;;;;;;;36.95;21.17;;;27.20;99.90;;;;;;5035482;28;20060;-68
2023/03/20 00:26:45;;;;;;;37.35;21.75;;;27.30;99.90;;;;;;5035455;28;20386;-68
2023/03/20 00:29:33;;;;;;;46.42;28.15;;;27.40;99.90;;;;;;5035116;28;20100;-69
2023/03/20 00:31:59;;;;;;;40.03;22.02;;;27.40;99.90;;;;;;5035105;28;20028;-68
2023/03/20 00:34:28;;;;;;;29.30;16.88;;;27.40;99.90;;;;;;5035041;28;20480;-69
2023/03/20 00:36:55;;;;;;;23.75;16.60;;;27.50;99.90;;;;;;5035040;28;20108;-68
2023/03/20 00:39:23;;;;;;;39.05;20.60;;;27.50;99.90;;;;;;5035076;28;20390;-68
2023/03/20 00:41:52;;;;;;;26.83;16.27;;;27.50;99.90;;;;;;5034770;28;20049;-68
2023/03/20 00:44:21;;;;;;;25.17;14.63;;;27.60;99.90;;;;;;5034964;28;20033;-68
2023/03/20 00:46:53;;;;;;;25.48;15.32;;;27.60;99.90;;;;;;5040196;28;20104;-69
2023/03/20 00:49:25;;;;;;;25.13;14.63;;;27.50;99.90;;;;;;5054562;28;20066;-68
2023/03/20 00:51:51;;;;;;;26.87;14.47;;;27.60;99.90;;;;;;5054995;28;20048;-69
2023/03/20 00:54:18;;;;;;;20.67;13.80;;;27.60;99.90;;;;;;5054659;28;20107;-68
2023/03/20 00:56:54;;;;;;;32.08;19.55;;;27.60;99.90;;;;;;5054477;28;20029;-69
2023/03/20 00:59:24;;;;;;;33.28;19.88;;;27.60;99.90;;;;;;5054592;28;20017;-68
2023/03/20 01:01:51;;;;;;;33.00;16.00;;;27.70;99.90;;;;;;5054588;28;20435;-69
2023/03/20 01:04:20;;;;;;;28.27;18.38;;;27.70;99.90;;;;;;5054767;28;20485;-69
2023/03/20 01:06:47;;;;;;;23.50;17.15;;;27.70;99.90;;;;;;5054679;28;20048;-68
2023/03/20 01:09:13;;;;;;;17.08;11.80;;;27.80;99.90;;;;;;5054195;28;20029;-69
2023/03/20 01:11:40;;;;;;;19.83;11.77;;;27.80;99.90;;;;;;5054412;28;20028;-69
2023/03/20 01:14:13;;;;;;;18.58;10.75;;;27.80;99.90;;;;;;5038755;28;20025;-69
2023/03/20 01:16:40;;;;;;;15.63;10.52;;;27.90;99.90;;;;;;5034308;28;20045;-69
2023/03/20 01:19:10;;;;;;;13.70;8.50;;;28.00;99.90;;;;;;5035378;28;20033;-68
2023/03/20 01:21:36;;;;;;;16.40;10.77;;;28.00;99.90;;;;;;5016881;28;20033;-69
2023/03/20 01:24:03;;;;;;;14.05;8.57;;;27.90;99.90;;;;;;5042623;28;20057;-69
2023/03/20 01:26:35;;;;;;;13.57;9.05;;;27.90;99.90;;;;;;5037003;28;20044;-69
2023/03/20 01:29:12;;;;;;;16.45;9.15;;;28.00;99.90;;;;;;5034472;28;20034;-69
2023/03/20 01:31:40;;;;;;;14.25;9.25;;;28.00;99.90;;;;;;5034590;28;20017;-70
2023/03/20 01:34:10;;;;;;;12.30;8.25;;;28.10;99.90;;;;;;5034389;28;20433;-70
2023/03/20 01:36:38;;;;;;;16.10;9.27;;;28.10;99.90;;;;;;5034214;28;20014;-69
2023/03/20 01:39:05;;;;;;;17.05;11.10;;;28.20;99.90;;;;;;5034590;28;20030;-69
2023/03/20 01:41:32;;;;;;;17.45;10.57;;;28.20;99.90;;;;;;5034856;28;20022;-69
2023/03/20 01:44:06;;;;;;;15.75;9.48;;;28.20;99.90;;;;;;5034400;28;20100;-70
2023/03/20 01:46:35;;;;;;;16.55;8.80;;;28.30;99.90;;;;;;5034555;28;20389;-69
2023/03/20 01:49:22;;;;;;;16.88;9.23;;;28.40;99.90;;;;;;5034386;28;20022;-70
2023/03/20 01:51:50;;;;;;;26.05;16.73;;;28.40;99.90;;;;;;5025660;28;20033;-69
2023/03/20 01:54:22;;;;;;;18.60;11.65;;;28.40;99.90;;;;;;5033584;28;20028;-70
2023/03/20 01:56:51;;;;;;;;;;;28.50;99.90;;;;;;5034095;28;20026;-70
2023/03/20 01:59:25;;;;;;;14.38;9.63;;;28.50;99.90;;;;;;5033273;28;20362;-69
2023/03/20 02:01:52;;;;;;;30.30;19.25;;;28.60;99.90;;;;;;5033091;28;20025;-71
2023/03/20 02:04:23;;;;;;;30.92;22.02;;;28.60;99.90;;;;;;5033152;28;20017;-70
2023/03/20 02:06:50;;;;;;;29.92;17.13;;;28.60;99.90;;;;;;5033120;28;20525;-71
2023/03/20 02:09:18;;;;;;;31.27;21.30;;;28.60;99.90;;;;;;5033246;28;20026;-71
2023/03/20 02:11:45;;;;;;;23.27;14.20;;;28.60;99.90;;;;;;5033459;28;20018;-69
2023/03/20 02:14:13;;;;;;;23.83;13.80;;;28.70;99.90;;;;;;5033464;28;20056;-70
2023/03/20 02:16:40;;;;;;;20.17;14.55;;;28.80;99.90;;;;;;5033267;28;20022;-71
2023/03/20 02:19:16;;;;;;;19.48;14.30;;;28.80;99.90;;;;;;5033250;28;20028;-71
2023/03/20 02:22:11;;;;;;;20.23;15.00;;;28.80;99.90;;;;;;5033413;28;20502;-71
2023/03/20 02:24:58;;;;;;;17.20;12.75;;;28.90;99.90;;;;;;5032638;28;20029;-75
2023/03/20 02:27:43;;;;;;;20.48;14.65;;;28.90;99.90;;;;;;5033538;28;20075;-71
2023/03/20 02:30:31;;;;;;;21.40;13.75;;;29.00;99.90;;;;;;5031360;28;20025;-71
2023/03/20 02:33:38;;;;;;;19.65;14.90;;;29.00;99.90;;;;;;5031307;28;20418;-63
2023/03/20 02:36:25;;;;;;;17.90;13.20;;;29.10;99.90;;;;;;5031146;28;20021;-64
2023/03/20 02:39:09;;;;;;;19.38;14.23;;;29.20;99.90;;;;;;5034481;28;20029;-64
2023/03/20 02:41:38;;;;;;;29.88;17.73;;;29.30;99.90;;;;;;5035177;28;20029;-64
2023/03/20 02:44:20;;;;;;;25.50;18.30;;;29.40;99.90;;;;;;5035663;28;20398;-65
2023/03/20 02:46:59;;;;;;;25.35;20.02;;;29.40;99.90;;;;;;5037190;28;20078;-65
2023/03/20 02:49:46;;;;;;;23.35;16.33;;;29.40;99.90;;;;;;5037234;28;20133;-67
2023/03/20 02:52:18;;;;;;;21.17;15.45;;;29.50;99.90;;;;;;5037011;28;20033;-66
2023/03/20 02:55:00;;;;;;;34.15;18.40;;;29.50;99.90;;;;;;5037137;28;20018;-66
2023/03/20 02:57:52;;;;;;;33.80;21.52;;;29.50;99.90;;;;;;5037202;28;20387;-66
2023/03/20 03:00:32;;;;;;;31.42;20.30;;;29.50;99.90;;;;;;5019407;28;20041;-67
2023/03/20 03:03:11;;;;;;;68.78;23.20;;;29.50;99.90;;;;;;5036867;28;20037;-66
2023/03/20 03:05:48;;;;;;;116.57;26.98;;;29.50;99.90;;;;;;5036821;28;20021;-64
2023/03/20 03:08:17;;;;;;;42.10;21.70;;;29.50;99.90;;;;;;5036365;28;20491;-65
2023/03/20 03:10:51;;;;;;;51.08;23.17;;;29.60;99.90;;;;;;5036693;28;20167;-65
2023/03/20 03:13:24;;;;;;;55.17;24.30;;;29.60;99.90;;;;;;5036657;28;20029;-63
2023/03/20 03:15:54;;;;;;;48.03;28.23;;;29.70;99.90;;;;;;5036665;28;20018;-66
2023/03/20 03:18:25;;;;;;;92.20;54.72;;;29.70;99.90;;;;;;5036776;28;20030;-70
2023/03/20 03:20:56;;;;;;;131.07;94.80;;;29.70;99.90;;;;;;5037892;28;20025;-64
2023/03/20 03:23:31;;;;;;;45.00;32.47;;;29.80;99.90;;;;;;5045309;28;20506;-64
2023/03/20 03:26:02;;;;;;;29.67;23.02;;;29.80;99.90;;;;;;5036208;28;20497;-63
2023/03/20 03:28:47;;;;;;;34.00;21.77;;;29.80;99.90;;;;;;5036628;28;20052;-65
2023/03/20 03:31:17;;;;;;;29.00;20.35;;;29.80;99.90;;;;;;5036045;28;20030;-66
2023/03/20 03:33:49;;;;;;;31.73;21.25;;;29.80;99.90;;;;;;5036325;28;20549;-69
2023/03/20 03:36:32;;;;;;;27.00;19.17;;;29.80;99.90;;;;;;5036370;28;20029;-66
2023/03/20 03:39:21;;;;;;;39.75;33.80;;;29.80;99.90;;;;;;5036090;28;20021;-66
2023/03/20 03:41:52;;;;;;;28.75;21.95;;;29.80;99.90;;;;;;5036060;28;20049;-66
2023/03/20 03:44:29;;;;;;;25.10;17.65;;;29.80;99.90;;;;;;5036101;28;20101;-67
2023/03/20 03:47:16;;;;;;;23.52;19.00;;;29.80;99.90;;;;;;5038488;28;20491;-67
2023/03/20 03:49:49;;;;;;;23.65;15.70;;;29.80;99.90;;;;;;5053737;28;20056;-66
2023/03/20 03:52:21;;;;;;;18.60;15.60;;;29.90;99.90;;;;;;5045052;28;20028;-65
2023/03/20 03:54:52;;;;;;;18.80;15.40;;;29.90;99.90;;;;;;5044197;28;20075;-67
2023/03/20 03:57:33;;;;;;;22.50;19.00;;;30.00;99.90;;;;;;5053873;28;20569;-67
2023/03/20 04:00:05;;;;;;;25.08;17.33;;;30.20;99.90;;;;;;5048133;28;20402;-69
2023/03/20 04:02:33;;;;;;;31.13;20.30;;;30.20;99.90;;;;;;5053623;28;20033;-64
2023/03/20 04:05:02;;;;;;;25.92;16.38;;;30.30;99.90;;;;;;5055467;28;20029;-67
2023/03/20 04:07:29;;;;;;;37.88;25.25;;;30.40;99.90;;;;;;5055368;28;20041;-67
2023/03/20 04:09:55;;;;;;;16.60;12.23;;;30.60;99.90;;;;;;5055443;28;20033;-68
2023/03/20 04:12:38;;;;;;;15.40;8.20;;;30.70;99.90;;;;;;5055417;28;20528;-67
2023/03/20 04:15:04;;;;;;;;;;;31.00;99.90;;;;;;5056012;28;20028;-67
2023/03/20 04:17:31;;;;;;;13.75;8.20;;;30.90;99.90;;;;;;5055215;28;19905;-68
2023/03/20 04:19:58;;;;;;;11.73;8.57;;;31.00;99.90;;;;;;5055370;28;20033;-69
2023/03/20 04:22:25;;;;;;;12.77;8.63;;;31.00;99.90;;;;;;5055372;28;20092;-70
2023/03/20 04:24:51;;;;;;;14.65;7.70;;;31.00;99.90;;;;;;5055165;28;20029;-68
2023/03/20 04:27:18;;;;;;;14.88;8.90;;;31.00;99.90;;;;;;5055282;28;20164;-70
2023/03/20 04:29:45;;;;;;;15.20;9.35;;;31.00;99.90;;;;;;5055278;28;20059;-69
2023/03/20 04:32:12;;;;;;;10.68;6.95;;;31.00;99.90;;;;;;5055230;28;20025;-67
2023/03/20 04:34:38;;;;;;;13.70;7.13;;;31.10;99.90;;;;;;5054795;28;20024;-66
2023/03/20 04:37:07;;;;;;;11.57;7.50;;;31.10;99.90;;;;;;5053474;28;20029;-67
2023/03/20 04:39:35;;;;;;;15.52;8.77;;;31.10;99.90;;;;;;5051275;28;20025;-66
2023/03/20 04:42:02;;;;;;;14.25;9.20;;;31.20;99.90;;;;;;5054304;28;20029;-68
2023/03/20 04:44:29;;;;;;;16.13;10.85;;;31.40;99.90;;;;;;5050165;28;20025;-68
2023/03/20 04:46:56;;;;;;;16.40;11.77;;;31.40;99.90;;;;;;5054503;28;20033;-68
2023/03/20 04:49:22;;;;;;;24.88;13.02;;;31.40;99.90;;;;;;5054356;28;20059;-67
2023/03/20 04:51:49;;;;;;;18.58;11.73;;;31.50;99.90;;;;;;5054652;28;20508;-68
2023/03/20 04:54:15;;;;;;;20.13;13.00;;;31.50;99.90;;;;;;5036281;28;20432;-66
2023/03/20 04:56:42;;;;;;;16.55;13.05;;;31.70;99.90;;;;;;5054304;28;20474;-67
2023/03/20 04:59:08;;;;;;;18.52;11.27;;;31.70;99.90;;;;;;5054586;28;20021;-68
2023/03/20 05:01:35;;;;;;;20.40;11.32;;;31.80;99.90;;;;;;5054381;28;20462;-69
2023/03/20 05:04:02;;;;;;;14.40;11.55;;;31.90;99.90;;;;;;5050186;28;20071;-68
2023/03/20 05:06:30;;;;;;;13.50;11.70;;;31.90;99.90;;;;;;5034435;28;20037;-69
2023/03/20 05:08:58;;;;;;;14.13;10.85;;;31.90;99.90;;;;;;5045009;28;20022;-68
2023/03/20 05:11:27;;;;;;;15.32;11.90;;;32.00;99.90;;;;;;5054015;28;20037;-68
2023/03/20 05:13:54;;;;;;;15.13;11.55;;;32.10;99.90;;;;;;5054359;28;20386;-70
2023/03/20 05:16:21;;;;;;;14.27;11.95;;;32.10;99.90;;;;;;5045573;28;20025;-69
2023/03/20 05:18:47;;;;;;;17.65;11.70;;;32.10;99.90;;;;;;5053910;28;20032;-68
2023/03/20 05:21:14;;;;;;;28.10;20.58;;;32.00;99.90;;;;;;5054258;28;20043;-70
2023/03/20 05:23:41;;;;;;;20.83;13.77;;;32.10;99.90;;;;;;5054048;28;20029;-68
2023/03/20 05:26:07;;;;;;;18.25;10.88;;;32.10;99.90;;;;;;5053825;28;20112;-68
2023/03/20 05:28:34;;;;;;;23.20;16.52;;;32.10;99.90;;;;;;5053884;28;20036;-68
2023/03/20 05:31:00;;;;;;;23.33;14.43;;;32.20;99.90;;;;;;5053949;28;20017;-68
2023/03/20 05:33:27;;;;;;;24.80;16.00;;;32.20;99.90;;;;;;5053773;28;20025;-68
2023/03/20 05:35:54;;;;;;;15.15;10.45;;;32.20;99.90;;;;;;5053914;28;20021;-68
2023/03/20 05:38:24;;;;;;;14.38;10.50;;;32.20;99.90;;;;;;5053892;28;20071;-69
2023/03/20 05:40:55;;;;;;;13.43;9.23;;;32.40;99.90;;;;;;5053484;28;20530;-68
2023/03/20 05:43:21;;;;;;;9.65;8.00;;;32.30;99.90;;;;;;5053891;28;20096;-68
2023/03/20 05:45:48;;;;;;;12.10;7.68;;;32.40;99.90;;;;;;5053776;28;20387;-69
2023/03/20 05:48:14;;;;;;;10.23;7.68;;;32.30;99.90;;;;;;5053571;28;20063;-69
2023/03/20 05:50:41;;;;;;;11.63;8.60;;;32.40;99.90;;;;;;5053474;28;20033;-70
2023/03/20 05:53:08;;;;;;;10.10;7.93;;;32.40;99.90;;;;;;5053581;28;20024;-68
2023/03/20 05:55:34;;;;;;;15.45;8.10;;;32.40;99.90;;;;;;5053336;28;20021;-69
2023/03/20 05:58:01;;;;;;;13.77;8.85;;;32.50;99.90;;;;;;5041972;28;20021;-68
2023/03/20 06:00:28;;;;;;;11.98;8.73;;;32.60;99.90;;;;;;5043057;28;20478;-69
2023/03/20 06:02:55;;;;;;;11.38;7.63;;;32.80;99.90;;;;;;5041036;28;20017;-67
2023/03/20 06:05:22;;;;;;;12.40;7.93;;;32.80;99.90;;;;;;5044083;28;20029;-69
2023/03/20 06:07:48;;;;;;;10.90;7.93;;;32.90;99.90;;;;;;5053027;28;20045;-67
2023/03/20 06:10:15;;;;;;;9.55;7.30;;;32.90;99.90;;;;;;5046455;28;20030;-68
2023/03/20 06:12:41;;;;;;;15.13;8.10;;;32.90;99.90;;;;;;5039990;28;20034;-69
2023/03/20 06:15:08;;;;;;;15.75;9.07;;;32.90;99.90;;;;;;5042722;28;20020;-73
2023/03/20 06:17:35;;;;;;;11.70;7.97;;;33.00;99.90;;;;;;5045280;28;20465;-68
2023/03/20 06:20:02;;;;;;;14.18;10.50;;;33.00;99.90;;;;;;5043162;28;20025;-67
2023/03/20 06:22:28;;;;;;;11.13;8.35;;;33.00;99.90;;;;;;5042721;28;20017;-74
2023/03/20 06:24:56;;;;;;;12.90;9.55;;;33.20;99.90;;;;;;5042084;28;20151;-70
2023/03/20 06:27:22;;;;;;;18.40;13.05;;;33.20;99.90;;;;;;5040930;28;20104;-68
2023/03/20 06:29:49;;;;;;;40.05;32.10;;;33.30;99.90;;;;;;5042667;28;20055;-70
2023/03/20 06:32:16;;;;;;;13.00;11.35;;;33.20;99.90;;;;;;5042062;28;20426;-68
2023/03/20 06:34:43;;;;;;;19.70;12.60;;;33.20;99.90;;;;;;5040894;28;20383;-68
2023/03/20 06:37:10;;;;;;;11.38;8.98;;;33.20;99.90;;;;;;5042595;28;20056;-67
2023/03/20 06:39:36;;;;;;;10.45;8.52;;;33.30;99.90;;;;;;5040256;28;20032;-66
2023/03/20 06:42:03;;;;;;;13.20;8.13;;;33.20;99.90;;;;;;5033250;28;20033;-68
2023/03/20 06:44:30;;;;;;;10.02;7.18;;;33.20;99.90;;;;;;5042075;28;20139;-68
2023/03/20 06:46:56;;;;;;;8.93;7.18;;;33.30;99.90;;;;;;5041059;28;20406;-69
2023/03/20 06:49:23;;;;;;;21.77;14.77;;;33.40;99.90;;;;;;5040815;28;20040;-67
2023/03/20 06:51:49;;;;;;;15.32;10.80;;;33.60;99.90;;;;;;5041858;28;20024;-68
2023/03/20 06:54:16;;;;;;;13.75;7.70;;;33.60;99.90;;;;;;5042517;28;20029;-64
2023/03/20 06:56:42;;;;;;;10.02;6.80;;;33.50;99.90;;;;;;5040630;28;20018;-68
2023/03/20 06:59:09;;;;;;;15.10;9.80;;;33.20;99.90;;;;;;5041980;28;20036;-68
2023/03/20 07:01:35;;;;;;;36.67;23.35;;;33.00;99.90;;;;;;5042505;28;20103;-67
2023/03/20 07:04:02;;;;;;;22.30;14.45;;;32.60;99.90;;;;;;5040604;28;20024;-68
2023/03/20 07:06:28;;;;;;;39.20;22.98;;;32.10;99.90;;;;;;5042086;28;20049;-68
2023/03/20 07:08:55;;;;;;;34.15;24.67;;;31.70;99.90;;;;;;5042741;28;20056;-68
2023/03/20 07:11:22;;;;;;;23.88;11.48;;;31.40;99.90;;;;;;5046737;28;20355;-69
2023/03/20 07:13:48;;;;;;;22.67;10.80;;;31.20;99.90;;;;;;5052827;28;20381;-69
2023/03/20 07:16:15;;;;;;;17.73;11.40;;;31.20;99.90;;;;;;5052661;28;20104;-69
2023/03/20 07:18:41;;;;;;;22.25;10.38;;;30.80;99.90;;;;;;5052642;28;20029;-71
2023/03/20 07:21:08;;;;;;;19.85;11.00;;;30.60;99.90;;;;;;5052520;28;20104;-72
2023/03/20 07:23:35;;;;;;;24.55;15.98;;;30.30;99.90;;;;;;5053343;28;20100;-71
2023/03/20 07:26:04;;;;;;;23.73;14.35;;;30.10;99.90;;;;;;5056029;28;20025;-71
2023/03/20 07:28:30;;;;;;;34.40;21.23;;;30.00;99.90;;;;;;5056222;28;20078;-70
2023/03/20 07:30:57;;;;;;;43.40;27.85;;;29.90;99.90;;;;;;5056122;28;20111;-70
2023/03/20 07:33:23;;;;;;;21.70;14.02;;;29.80;99.90;;;;;;5055951;28;20059;-69
2023/03/20 07:35:54;;;;;;;21.42;14.55;;;30.00;99.90;;;;;;5055987;28;20048;-70
2023/03/20 07:38:21;;;;;;;30.40;17.40;;;30.00;99.90;;;;;;5056404;28;20431;-70
2023/03/20 07:40:48;;;;;;;48.08;33.63;;;30.00;99.90;;;;;;5055874;28;20025;-70
2023/03/20 07:43:16;;;;;;;34.13;23.02;;;29.80;99.90;;;;;;5056015;28;20025;-70
2023/03/20 07:45:43;;;;;;;27.38;15.82;;;29.70;99.90;;;;;;5055965;28;20032;-70
2023/03/20 07:48:09;;;;;;;34.53;21.98;;;29.60;99.90;;;;;;5055763;28;20049;-70
2023/03/20 07:50:36;;;;;;;43.10;28.55;;;29.60;99.90;;;;;;5055760;28;20442;-70
2023/03/20 07:53:02;;;;;;;57.25;32.95;;;29.70;99.90;;;;;;5055745;28;20506;-70
2023/03/20 07:55:29;;;;;;;30.88;16.33;;;29.80;99.90;;;;;;5055625;28;20017;-69
2023/03/20 07:57:56;;;;;;;32.63;22.98;;;29.90;99.90;;;;;;5055736;28;20020;-68
2023/03/20 08:00:22;;;;;;;12.00;8.85;;;29.90;99.90;;;;;;5055744;28;20028;-67
2023/03/20 08:02:49;;;;;;;40.00;26.77;;;30.00;99.90;;;;;;5055346;28;20033;-69
2023/03/20 08:05:16;;;;;;;42.38;23.30;;;30.10;99.90;;;;;;5055458;28;20017;-72
2023/03/20 08:07:42;;;;;;;37.95;20.77;;;29.90;99.90;;;;;;5055285;28;20033;-71
2023/03/20 08:10:09;;;;;;;19.95;11.13;;;29.80;99.90;;;;;;5055191;28;20037;-71
2023/03/20 08:12:36;;;;;;;30.77;10.27;;;29.70;99.90;;;;;;5055444;28;20024;-71
2023/03/20 08:15:03;;;;;;;11.52;7.97;;;29.60;99.90;;;;;;5055419;28;20366;-71
2023/03/20 08:17:29;;;;;;;15.82;9.35;;;29.50;99.90;;;;;;5055043;28;20044;-71
2023/03/20 08:19:56;;;;;;;24.05;12.52;;;29.40;99.90;;;;;;5055535;28;20028;-72
2023/03/20 08:22:22;;;;;;;40.72;13.38;;;29.50;99.90;;;;;;5055252;28;20021;-72
2023/03/20 08:24:49;;;;;;;21.67;12.63;;;29.60;99.90;;;;;;5055141;28;20417;-67
2023/03/20 08:27:16;;;;;;;35.25;19.88;;;29.70;99.90;;;;;;5051221;28;20033;-69
2023/03/20 08:29:42;;;;;;;17.50;10.13;;;29.80;99.90;;;;;;5054993;28;20557;-69
2023/03/20 08:32:09;;;;;;;36.40;27.23;;;29.90;99.90;;;;;;5050446;28;20051;-68
2023/03/20 08:34:35;;;;;;;140.93;112.10;;;30.00;99.90;;;;;;5054845;28;20025;-68
2023/03/20 08:37:03;;;;;;;33.17;20.50;;;30.20;99.90;;;;;;5054700;28;20024;-69
2023/03/20 08:39:31;;;;;;;27.85;16.30;;;30.20;99.90;;;;;;5041722;28;20026;-68
2023/03/20 08:41:58;;;;;;;18.38;11.20;;;30.20;99.90;;;;;;5037417;28;20025;-67
2023/03/20 08:44:25;;;;;;;38.40;22.55;;;30.20;99.90;;;;;;5040646;28;20018;-67
2023/03/20 08:46:53;;;;;;;34.20;19.70;;;30.30;99.90;;;;;;5042370;28;20036;-69
2023/03/20 08:50:22;;;;;;;52.45;36.90;;;30.40;99.90;;;;;;5050553;28;20857;-72
2023/03/20 08:52:49;;;;;;;26.38;17.70;;;30.40;99.90;;;;;;5050388;28;20036;-71
2023/03/20 08:55:16;;;;;;;31.73;20.55;;;30.40;99.90;;;;;;5050244;28;20112;-71
2023/03/20 08:57:43;;;;;;;20.42;12.00;;;30.40;99.90;;;;;;5050192;28;20021;-72
2023/03/20 09:00:14;;;;;;;13.48;8.77;;;30.50;99.90;;;;;;5050228;28;20022;-72
2023/03/20 09:02:42;;;;;;;18.05;9.32;;;30.40;99.90;;;;;;5050321;28;20035;-72
2023/03/20 09:05:10;;;;;;;17.70;9.77;;;30.40;99.90;;;;;;5050322;28;20479;-67
2023/03/20 09:07:36;;;;;;;32.30;16.63;;;30.40;99.90;;;;;;5050044;28;20029;-68
2023/03/20 09:12:32;;;;;;;34.85;22.25;;;30.40;99.90;;;;;;5089342;28;20398;-70
2023/03/20 09:15:00;;;;;;;38.42;21.13;;;30.30;99.90;;;;;;5079987;28;20376;-68
2023/03/20 09:17:26;;;;;;;28.77;17.25;;;30.30;99.90;;;;;;5085969;28;20497;-64
2023/03/20 09:19:53;;;;;;;73.32;49.83;;;30.20;99.90;;;;;;5080965;28;20140;-66
2023/03/20 09:22:20;;;;;;;61.25;42.45;;;30.30;99.90;;;;;;5078203;28;20017;-68
2023/03/20 09:24:46;;;;;;;27.88;16.70;;;30.30;99.90;;;;;;5079306;28;20514;-67
2023/03/20 09:27:13;;;;;;;32.47;19.17;;;30.40;99.90;;;;;;5079761;28;20013;-67
2023/03/20 09:29:40;;;;;;;38.03;23.52;;;30.30;99.90;;;;;;5077996;28;20520;-67
2023/03/20 09:32:10;;;;;;;55.67;33.83;;;30.30;99.90;;;;;;5081010;28;20465;-63
2023/03/20 09:34:36;;;;;;;121.85;73.15;;;30.30;99.90;;;;;;5090361;28;20050;-63
2023/03/20 09:37:03;;;;;;;52.55;31.55;;;30.40;99.90;;;;;;5090282;28;20103;-64
2023/03/20 09:39:29;;;;;;;50.38;34.60;;;30.30;99.90;;;;;;5090295;28;20050;-64
2023/03/20 09:42:02;;;;;;;56.03;38.75;;;30.30;99.90;;;;;;5090271;28;20017;-64
2023/03/20 09:44:29;;;;;;;47.58;31.38;;;30.30;99.90;;;;;;5080228;28;20028;-64
2023/03/20 09:47:07;;;;;;;84.25;52.13;;;30.30;99.90;;;;;;5077953;28;20028;-60
2023/03/20 09:49:39;;;;;;;44.38;29.73;;;30.30;99.90;;;;;;5077401;28;20020;-64
2023/03/20 09:52:45;;;;;;;28.67;18.98;;;30.30;99.90;;;;;;5075160;28;20063;-63
2023/03/20 09:55:17;;;;;;;21.80;15.02;;;30.30;99.90;;;;;;5076738;28;20074;-64
2023/03/20 09:57:48;;;;;;;23.38;15.25;;;30.50;99.90;;;;;;5077209;28;20531;-63
2023/03/20 10:00:28;;;;;;;44.75;28.63;;;30.50;99.90;;;;;;5078003;28;20024;-63
2023/03/20 10:02:59;;;;;;;29.55;15.82;;;30.50;99.90;;;;;;5077489;28;20025;-64
2023/03/20 10:05:29;;;;;;;24.23;15.10;;;30.40;99.90;;;;;;5081259;28;20035;-64
2023/03/20 10:08:00;;;;;;;44.08;32.03;;;30.40;99.90;;;;;;5089748;28;20025;-65
2023/03/20 10:10:47;;;;;;;35.13;22.55;;;30.40;99.90;;;;;;5089745;28;20064;-63
2023/03/20 10:13:32;;;;;;;31.40;21.83;;;30.40;99.90;;;;;;5088599;28;20099;-60
2023/03/20 10:16:07;;;;;;;29.80;19.77;;;30.40;99.90;;;;;;5074741;28;20021;-64
2023/03/20 10:18:40;;;;;;;22.48;13.73;;;30.50;99.90;;;;;;5052020;28;20108;-63
2023/03/20 10:21:18;;;;;;;48.58;31.90;;;30.50;99.90;;;;;;5049430;28;20132;-63
2023/03/20 10:24:02;;;;;;;28.73;17.45;;;30.50;99.90;;;;;;5049544;28;20387;-63
2023/03/20 10:26:33;;;;;;;19.55;12.98;;;30.40;99.90;;;;;;5036880;28;20038;-62
2023/03/20 10:29:04;;;;;;;26.38;16.25;;;30.30;99.90;;;;;;5065180;28;20432;-63
2023/03/20 10:31:42;;;;;;;48.77;32.97;;;30.30;99.90;;;;;;5064358;28;20059;-64
2023/03/20 10:34:19;;;;;;;23.05;17.15;;;30.30;99.90;;;;;;5063802;28;20032;-64
2023/03/20 10:36:55;;;;;;;23.85;15.77;;;30.40;99.90;;;;;;5057693;28;20425;-63
2023/03/20 10:39:23;;;;;;;61.53;41.65;;;30.30;99.90;;;;;;5061570;28;20086;-64
2023/03/20 10:41:54;;;;;;;119.20;68.32;;;30.30;99.90;;;;;;5062062;28;20488;-70
2023/03/20 10:44:32;;;;;;;95.35;53.55;;;30.40;99.90;;;;;;5054139;28;20380;-69
2023/03/20 10:47:02;;;;;;;32.65;21.73;;;30.40;99.90;;;;;;5060053;28;20143;-69
2023/03/20 10:49:33;;;;;;;36.40;21.77;;;30.30;99.90;;;;;;5066375;28;20470;-68
2023/03/20 10:52:14;;;;;;;24.80;15.20;;;30.30;99.90;;;;;;5059826;28;20068;-65
2023/03/20 10:54:44;;;;;;;30.35;17.40;;;30.30;99.90;;;;;;5055316;28;20844;-67
2023/03/20 10:57:23;;;;;;;25.70;17.20;;;30.30;99.90;;;;;;5061383;28;20042;-69
2023/03/20 10:59:51;;;;;;;31.67;21.70;;;30.20;99.90;;;;;;5068508;28;20036;-69
2023/03/20 11:02:22;;;;;;;27.73;16.77;;;30.20;99.90;;;;;;5046312;23;20054;-68
2023/03/20 11:04:49;;;;;;;30.65;20.13;;;30.20;99.90;;;;;;5015366;28;20026;-68
2023/03/20 11:07:23;;;;;;;27.10;17.55;;;30.30;99.90;;;;;;5015617;28;20325;-70
2023/03/20 11:10:11;;;;;;;37.13;20.13;;;30.30;99.90;;;;;;5030663;28;20033;-69
2023/03/20 11:12:39;;;;;;;33.60;19.40;;;30.40;99.90;;;;;;5015565;28;20069;-70
2023/03/20 11:15:23;;;;;;;36.58;23.77;;;30.40;99.90;;;;;;5015537;28;20109;-71
2023/03/20 11:17:52;;;;;;;34.75;25.60;;;30.30;99.90;;;;;;5017928;28;20117;-70
2023/03/20 11:20:18;;;;;;;33.28;23.45;;;30.20;99.90;;;;;;5032398;28;20093;-72
2023/03/20 11:22:48;;;;;;;35.67;24.27;;;30.10;99.90;;;;;;5034973;28;20080;-69
2023/03/20 11:25:30;;;;;;;33.85;22.58;;;30.00;99.90;;;;;;5035017;28;20049;-69
2023/03/20 11:28:17;;;;;;;30.70;21.55;;;30.10;99.90;;;;;;5035676;28;20096;-69
2023/03/20 11:30:43;;;;;;;31.27;22.10;;;30.10;99.90;;;;;;5035108;28;20056;-73
2023/03/20 11:33:10;;;;;;;33.75;21.58;;;30.10;99.90;;;;;;5034413;28;20382;-70
2023/03/20 11:35:37;;;;;;;38.03;22.70;;;30.00;99.90;;;;;;5020873;28;20036;-73
2023/03/20 11:38:14;;;;;;;37.78;23.85;;;30.00;99.90;;;;;;5020226;28;20371;-69
2023/03/20 11:40:40;;;;;;;50.22;36.25;;;30.00;99.90;;;;;;5023396;28;20104;-66
2023/03/20 11:43:11;;;;;;;45.88;33.85;;;30.00;99.90;;;;;;5034504;28;20104;-65
2023/03/20 11:45:43;;;;;;;45.15;32.20;;;30.00;99.90;;;;;;5034347;28;20036;-63
2023/03/20 11:48:20;;;;;;;;;;;30.10;99.90;;;;;;5034794;28;20104;-64
2023/03/20 11:51:12;;;;;;;36.17;24.23;;;30.00;99.90;;;;;;5034421;28;20003;-64
2023/03/20 11:53:39;;;;;;;36.80;23.63;;;30.00;99.90;;;;;;5033695;28;20565;-65
2023/03/20 11:56:27;;;;;;;33.70;22.45;;;30.00;99.90;;;;;;5025177;28;20471;-63
2023/03/20 11:59:12;;;;;;;29.70;20.48;;;30.00;99.90;;;;;;5019510;28;20025;-63
2023/03/20 12:01:45;;;;;;;101.53;66.30;;;30.00;99.90;;;;;;5021397;28;20046;-62
2023/03/20 12:04:16;;;;;;;58.20;37.45;;;30.10;99.90;;;;;;5019676;28;20029;-64
2023/03/20 12:06:48;;;;;;;76.72;53.20;;;30.10;99.90;;;;;;5022880;28;20469;-63
2023/03/20 12:09:34;;;;;;;;;;;30.10;99.90;;;;;;5003192;28;20022;-63
2023/03/20 12:12:05;;;;;;;44.38;25.77;;;30.00;99.90;;;;;;4992439;28;20268;-64
2023/03/20 12:14:42;;;;;;;30.85;21.10;;;30.00;99.90;;;;;;4994648;28;20014;-63
2023/03/20 12:17:19;;;;;;;38.53;25.02;;;30.00;99.90;;;;;;5013938;28;20061;-64
2023/03/20 12:19:48;;;;;;;52.70;36.30;;;30.00;99.90;;;;;;4998133;28;20026;-63
2023/03/20 12:22:26;;;;;;;39.25;22.30;;;29.90;99.90;;;;;;4994623;28;20476;-64
2023/03/20 12:25:12;;;;;;;45.88;32.92;;;29.90;99.90;;;;;;5000943;28;20026;-63
2023/03/20 12:27:47;;;;;;;35.22;26.65;;;30.00;99.90;;;;;;5010902;28;20041;-67
2023/03/20 12:30:19;;;;;;;48.25;29.48;;;29.90;99.90;;;;;;5013235;28;20038;-68
2023/03/20 12:32:59;;;;;;;33.85;21.70;;;29.90;99.90;;;;;;5013964;28;20446;-65
2023/03/20 12:35:40;;;;;;;28.10;18.35;;;29.90;99.90;;;;;;5007568;28;20113;-65
2023/03/20 12:38:28;;;;;;;57.45;35.53;;;29.80;99.90;;;;;;5013773;28;20021;-65
2023/03/20 12:41:18;;;;;;;37.65;26.65;;;29.80;99.90;;;;;;5012456;28;20399;-67
2023/03/20 12:43:53;;;;;;;30.60;18.83;;;29.80;99.90;;;;;;5007758;28;20030;-63
2023/03/20 12:46:31;;;;;;;47.13;30.63;;;29.90;99.90;;;;;;5011719;28;20069;-66
2023/03/20 12:49:05;;;;;;;22.75;14.52;;;29.80;99.90;;;;;;5012100;28;20033;-65
2023/03/20 12:51:49;;;;;;;21.17;13.95;;;29.80;99.90;;;;;;5012013;28;20454;-63
2023/03/20 12:54:24;;;;;;;31.73;20.35;;;29.80;99.90;;;;;;5012015;28;20037;-63